Time;durP1;ratioP1;P1;durP2;ratioP2;P2;SDS_P1;SDS_P2;PMS_P1;PMS_P2;Temp;Humidity;BMP_temperature;BMP_pressure;BME280_temperature;BME280_humidity;BME280_pressure;Samples;Min_cycle;Max_cycle;Signal;HPM_P1;HPM_P2
2021/06/11 00:01:14;;;;;;;10.00;9.20;;;15.20;99.90;;;;;;5078770;28;21162;-90
2021/06/11 00:03:40;;;;;;;10.60;9.80;;;15.20;99.90;;;;;;5087858;28;20629;-92
2021/06/11 00:06:07;;;;;;;9.40;8.70;;;15.20;99.90;;;;;;5085742;28;20623;-93
2021/06/11 00:08:33;;;;;;;10.30;9.40;;;15.10;99.90;;;;;;5085966;28;20620;-93
2021/06/11 00:11:01;;;;;;;11.33;10.20;;;15.10;99.90;;;;;;5080483;28;20665;-91
2021/06/11 00:13:27;;;;;;;16.73;10.10;;;15.10;99.90;;;;;;5082908;28;20676;-92
2021/06/11 00:15:55;;;;;;;10.93;10.00;;;15.10;99.90;;;;;;5081083;28;20625;-93
2021/06/11 00:18:22;;;;;;;11.23;10.43;;;15.10;99.90;;;;;;5081067;28;20729;-93
2021/06/11 00:20:48;;;;;;;11.90;10.90;;;15.10;99.90;;;;;;5078896;28;20661;-93
2021/06/11 00:23:14;;;;;;;10.87;10.07;;;15.00;99.90;;;;;;5082902;28;20654;-93
2021/06/11 00:25:41;;;;;;;9.73;9.00;;;15.00;99.90;;;;;;5081140;28;20675;-92
2021/06/11 00:28:07;;;;;;;10.30;9.30;;;14.90;99.90;;;;;;5082020;28;20624;-93
2021/06/11 00:30:35;;;;;;;10.70;9.90;;;14.90;99.90;;;;;;5109937;27;20678;-93
2021/06/11 00:33:03;;;;;;;10.97;10.07;;;14.80;99.90;;;;;;5078628;28;20663;-92
2021/06/11 00:35:29;;;;;;;10.23;9.33;;;14.80;99.90;;;;;;5077562;28;20615;-92
2021/06/11 00:37:56;;;;;;;10.33;9.63;;;14.90;99.90;;;;;;5083828;28;20627;-93
2021/06/11 00:40:23;;;;;;;10.67;9.87;;;14.80;99.90;;;;;;5083933;28;20721;-92
2021/06/11 00:42:50;;;;;;;10.80;9.90;;;14.80;99.90;;;;;;5081759;28;20749;-91
2021/06/11 00:45:16;;;;;;;10.50;9.70;;;14.80;99.90;;;;;;5089066;28;20667;-91
2021/06/11 00:47:45;;;;;;;11.30;10.30;;;14.80;99.90;;;;;;5095019;28;20677;-93
2021/06/11 00:50:15;;;;;;;12.00;11.00;;;14.80;99.90;;;;;;5095938;28;20645;-92
2021/06/11 00:52:41;;;;;;;11.23;10.43;;;14.80;99.90;;;;;;5082803;28;20636;-91
2021/06/11 00:55:09;;;;;;;11.40;10.43;;;14.70;99.90;;;;;;5080232;28;20627;-92
2021/06/11 00:57:36;;;;;;;10.73;10.03;;;14.70;99.90;;;;;;5080839;28;20627;-92
2021/06/11 01:00:03;;;;;;;10.67;9.80;;;14.70;99.90;;;;;;5076970;28;20612;-91
2021/06/11 01:02:29;;;;;;;11.30;10.43;;;14.70;99.90;;;;;;5078012;28;20624;-91
2021/06/11 01:04:56;;;;;;;11.40;10.50;;;14.70;99.90;;;;;;5075866;28;20660;-91
2021/06/11 01:07:24;;;;;;;14.20;10.40;;;14.70;99.90;;;;;;5074062;28;20620;-91
2021/06/11 01:09:52;;;;;;;11.57;10.47;;;14.70;99.90;;;;;;5081090;28;20746;-91
2021/06/11 01:12:18;;;;;;;10.50;9.57;;;14.60;99.90;;;;;;5080095;28;21266;-91
2021/06/11 01:14:45;;;;;;;11.23;10.40;;;14.60;99.90;;;;;;5081293;28;20619;-92
2021/06/11 01:17:12;;;;;;;11.40;10.13;;;14.60;99.90;;;;;;5078692;28;20650;-91
2021/06/11 01:19:43;;;;;;;10.97;9.83;;;14.50;99.90;;;;;;5093320;28;20656;-92
2021/06/11 01:22:13;;;;;;;11.60;10.60;;;14.50;99.90;;;;;;5076588;28;20628;-91
2021/06/11 01:24:52;;;;;;;11.17;10.20;;;14.40;99.90;;;;;;5081108;28;20708;-90
2021/06/11 01:27:21;;;;;;;12.03;11.13;;;14.50;99.90;;;;;;5081368;28;20631;-90
2021/06/11 01:29:51;;;;;;;12.30;11.40;;;14.40;99.90;;;;;;5078230;28;20636;-90
2021/06/11 01:32:19;;;;;;;10.87;10.00;;;14.50;99.90;;;;;;5076472;28;21022;-91
2021/06/11 01:34:48;;;;;;;12.17;10.97;;;14.50;99.90;;;;;;5075880;28;20669;-92
2021/06/11 01:37:18;;;;;;;11.40;10.30;;;14.50;99.90;;;;;;5078230;28;20636;-92
2021/06/11 01:39:48;;;;;;;13.77;10.60;;;14.50;99.90;;;;;;5080804;28;21224;-92
2021/06/11 01:42:15;;;;;;;11.60;10.70;;;14.50;99.90;;;;;;5083442;28;20620;-91
2021/06/11 01:44:45;;;;;;;11.67;10.77;;;14.50;99.90;;;;;;5076214;28;20667;-91
2021/06/11 01:47:13;;;;;;;10.93;10.00;;;14.40;99.90;;;;;;5074977;28;20624;-90
2021/06/11 01:49:42;;;;;;;11.93;11.10;;;14.40;99.90;;;;;;5075161;28;20645;-90
2021/06/11 01:52:11;;;;;;;12.70;11.60;;;14.30;99.90;;;;;;5079499;28;21040;-90
2021/06/11 01:54:38;;;;;;;12.27;11.17;;;14.30;99.90;;;;;;5080783;28;20969;-93
2021/06/11 01:57:06;;;;;;;13.63;12.53;;;14.30;99.90;;;;;;5080415;28;20615;-91
2021/06/11 01:59:33;;;;;;;13.70;12.60;;;14.20;99.90;;;;;;5073693;28;20672;-92
2021/06/11 02:02:02;;;;;;;12.57;11.57;;;14.20;99.90;;;;;;5076623;28;20620;-92
2021/06/11 02:04:30;;;;;;;12.17;11.27;;;14.20;99.90;;;;;;5077065;28;21126;-92
2021/06/11 02:06:57;;;;;;;12.70;11.60;;;14.10;99.90;;;;;;5075811;28;20784;-92
2021/06/11 02:09:25;;;;;;;13.30;12.30;;;14.10;99.90;;;;;;5080135;28;21016;-92
2021/06/11 02:11:52;;;;;;;13.27;12.07;;;14.20;99.90;;;;;;5094630;28;20645;-92
2021/06/11 02:14:21;;;;;;;13.70;12.50;;;14.30;99.90;;;;;;5098360;28;20663;-91
2021/06/11 02:16:49;;;;;;;12.50;11.20;;;14.20;99.90;;;;;;5088156;28;20747;-91
2021/06/11 02:19:20;;;;;;;12.67;11.67;;;14.30;99.90;;;;;;5089028;28;20656;-91
2021/06/11 02:21:46;;;;;;;12.43;11.20;;;14.30;99.90;;;;;;5083196;28;20619;-91
2021/06/11 02:24:13;;;;;;;12.63;11.60;;;14.20;99.90;;;;;;5076490;28;21697;-91
2021/06/11 02:26:41;;;;;;;14.43;11.23;;;14.10;99.90;;;;;;5080291;28;20632;-92
2021/06/11 02:29:07;;;;;;;14.03;12.70;;;14.10;99.90;;;;;;5079660;28;20751;-91
2021/06/11 02:31:35;;;;;;;14.03;12.80;;;14.10;99.90;;;;;;5076773;28;20617;-91
2021/06/11 02:34:01;;;;;;;13.67;12.67;;;14.10;99.90;;;;;;5080801;28;20629;-90
2021/06/11 02:36:31;;;;;;;13.03;12.00;;;14.10;99.90;;;;;;5082804;28;20616;-93
2021/06/11 02:38:57;;;;;;;13.30;12.20;;;14.10;99.90;;;;;;5079819;28;20667;-92
2021/06/11 02:41:26;;;;;;;13.33;12.23;;;14.00;99.90;;;;;;5088524;28;20604;-93
2021/06/11 02:43:54;;;;;;;13.10;12.07;;;14.00;99.90;;;;;;5086482;28;20632;-93
2021/06/11 02:46:26;;;;;;;13.30;12.30;;;14.00;99.90;;;;;;5081291;28;20631;-90
2021/06/11 02:48:59;;;;;;;13.07;11.77;;;14.00;99.90;;;;;;5089483;28;20661;-90
2021/06/11 02:51:32;;;;;;;13.53;12.30;;;14.00;99.90;;;;;;5084539;28;21054;-91
2021/06/11 02:53:59;;;;;;;11.77;10.77;;;14.00;99.90;;;;;;5084240;28;20627;-93
2021/06/11 02:56:38;;;;;;;13.97;12.97;;;13.90;99.90;;;;;;5091464;28;20629;-92
2021/06/11 02:59:08;;;;;;;13.40;12.40;;;13.90;99.90;;;;;;5088085;28;20662;-93
2021/06/11 03:01:39;;;;;;;13.67;12.40;;;14.00;99.90;;;;;;5089187;28;20723;-91
2021/06/11 03:04:10;;;;;;;13.70;12.60;;;13.90;99.90;;;;;;5082427;28;20631;-92
2021/06/11 03:06:39;;;;;;;13.43;12.20;;;13.90;99.90;;;;;;5087953;28;21247;-92
2021/06/11 03:09:08;;;;;;;13.20;12.10;;;13.90;99.90;;;;;;5086673;28;20658;-91
2021/06/11 03:11:38;;;;;;;12.63;11.73;;;13.80;99.90;;;;;;5083744;28;20624;-92
2021/06/11 03:14:05;;;;;;;13.73;12.63;;;13.80;99.90;;;;;;5081775;28;20732;-91
2021/06/11 03:16:34;;;;;;;13.97;12.77;;;13.90;99.90;;;;;;5081339;28;20974;-91
2021/06/11 03:19:06;;;;;;;12.00;11.10;;;13.80;99.90;;;;;;5080566;28;20714;-91
2021/06/11 03:21:35;;;;;;;13.67;12.47;;;13.80;99.90;;;;;;5084197;28;21032;-91
2021/06/11 03:24:07;;;;;;;13.57;12.27;;;13.80;99.90;;;;;;5088768;28;20642;-90
2021/06/11 03:26:39;;;;;;;13.53;12.33;;;13.70;99.90;;;;;;5084061;28;20642;-92
2021/06/11 03:29:09;;;;;;;13.77;12.53;;;13.60;99.90;;;;;;5083262;28;20652;-90
2021/06/11 03:31:40;;;;;;;14.10;13.10;;;13.60;99.90;;;;;;5084022;28;20680;-91
2021/06/11 03:34:12;;;;;;;13.83;12.60;;;13.60;99.90;;;;;;5077720;28;20640;-92
2021/06/11 03:36:42;;;;;;;12.50;11.50;;;13.50;99.90;;;;;;5084591;28;20624;-93
2021/06/11 03:39:19;;;;;;;14.30;13.13;;;13.50;99.90;;;;;;5086540;28;20636;-91
2021/06/11 03:41:46;;;;;;;13.90;12.70;;;13.60;99.90;;;;;;5082696;28;20640;-93
2021/06/11 03:44:14;;;;;;;15.00;13.80;;;13.70;99.90;;;;;;5078734;28;20624;-93
2021/06/11 03:46:44;;;;;;;15.30;14.00;;;13.60;99.90;;;;;;5081224;28;20632;-92
2021/06/11 03:49:11;;;;;;;15.17;13.83;;;13.70;99.90;;;;;;5092537;28;20676;-93
2021/06/11 03:51:40;;;;;;;14.57;13.37;;;13.80;99.90;;;;;;5094880;28;20617;-92
2021/06/11 03:54:08;;;;;;;15.50;14.30;;;13.80;99.90;;;;;;5085942;28;20668;-95
2021/06/11 03:56:40;;;;;;;14.90;13.60;;;13.80;99.90;;;;;;5091164;28;20679;-96
2021/06/11 03:59:09;;;;;;;15.77;14.37;;;13.80;99.90;;;;;;5089078;28;20627;-95
2021/06/11 04:01:41;;;;;;;14.97;13.70;;;13.80;99.90;;;;;;5088490;28;20628;-96
2021/06/11 04:04:08;;;;;;;19.77;15.10;;;13.80;99.90;;;;;;5088916;28;20667;-95
2021/06/11 04:06:37;;;;;;;17.27;15.73;;;13.90;99.90;;;;;;5087025;28;20632;-94
2021/06/11 04:09:08;;;;;;;17.60;15.80;;;13.90;99.90;;;;;;5086679;28;21154;-94
2021/06/11 04:11:42;;;;;;;20.13;18.43;;;13.90;99.90;;;;;;5090297;28;20636;-94
2021/06/11 04:14:14;;;;;;;18.90;17.30;;;14.00;99.90;;;;;;5091775;28;20652;-93
2021/06/11 04:16:45;;;;;;;22.37;20.20;;;14.00;99.90;;;;;;5081517;28;20751;-92
2021/06/11 04:19:17;;;;;;;23.87;21.80;;;14.00;99.90;;;;;;5081848;28;20632;-92
2021/06/11 04:21:46;;;;;;;24.33;21.97;;;14.10;99.90;;;;;;5084184;28;20626;-92
2021/06/11 04:24:14;;;;;;;25.87;23.27;;;14.00;99.90;;;;;;5084680;28;20672;-92
2021/06/11 04:26:43;;;;;;;23.73;21.53;;;14.10;99.90;;;;;;5083718;28;20640;-90
2021/06/11 04:29:12;;;;;;;25.57;23.17;;;14.10;99.90;;;;;;5088963;28;20711;-89
2021/06/11 04:31:38;;;;;;;26.43;23.93;;;14.10;99.90;;;;;;5086539;28;20643;-90
2021/06/11 04:34:05;;;;;;;28.13;25.63;;;14.10;99.90;;;;;;5081054;28;20659;-90
2021/06/11 04:36:34;;;;;;;29.07;26.57;;;14.10;99.90;;;;;;5084942;28;20623;-91
2021/06/11 04:39:05;;;;;;;29.10;26.40;;;14.20;99.90;;;;;;5090089;28;21047;-91
2021/06/11 04:41:32;;;;;;;26.07;23.83;;;14.30;99.90;;;;;;5092434;28;20638;-92
2021/06/11 04:44:01;;;;;;;25.03;22.93;;;14.20;99.90;;;;;;5078124;28;20752;-91
2021/06/11 04:46:28;;;;;;;26.60;24.30;;;14.30;99.90;;;;;;5083417;28;20671;-91
2021/06/11 04:48:56;;;;;;;22.33;20.57;;;14.20;99.90;;;;;;5088136;28;20619;-90
2021/06/11 04:51:23;;;;;;;21.90;20.20;;;14.30;99.90;;;;;;5084382;28;20654;-90
2021/06/11 04:53:51;;;;;;;21.13;19.27;;;14.40;99.90;;;;;;5089330;28;20687;-89
2021/06/11 04:56:17;;;;;;;21.00;19.30;;;14.40;99.90;;;;;;5080367;28;20660;-92
2021/06/11 04:58:44;;;;;;;21.33;19.37;;;14.40;99.90;;;;;;5081666;28;20701;-90
2021/06/11 05:01:12;;;;;;;17.57;16.13;;;14.40;99.90;;;;;;5085249;28;20727;-91
2021/06/11 05:03:38;;;;;;;18.60;17.10;;;14.40;99.90;;;;;;5083460;28;21269;-90
2021/06/11 05:06:06;;;;;;;18.07;16.57;;;14.50;99.90;;;;;;5087996;28;20721;-91
2021/06/11 05:08:32;;;;;;;17.50;16.10;;;14.50;99.90;;;;;;5094827;28;20628;-91
2021/06/11 05:11:00;;;;;;;16.77;15.17;;;14.50;99.90;;;;;;5092135;28;20624;-93
2021/06/11 05:13:27;;;;;;;18.10;16.50;;;14.60;99.90;;;;;;5102471;28;20679;-93
2021/06/11 05:15:54;;;;;;;16.30;14.97;;;14.70;99.90;;;;;;5106642;28;20618;-93
2021/06/11 05:18:27;;;;;;;18.47;17.00;;;14.70;99.90;;;;;;5110439;28;20625;-93
2021/06/11 05:20:53;;;;;;;16.33;14.93;;;14.80;99.90;;;;;;5101622;28;20659;-91
2021/06/11 05:23:20;;;;;;;15.60;14.40;;;14.70;99.90;;;;;;5100544;28;21314;-91
2021/06/11 05:25:47;;;;;;;16.43;15.10;;;14.90;99.90;;;;;;5100516;28;20702;-91
2021/06/11 05:28:13;;;;;;;16.63;15.43;;;15.00;99.90;;;;;;5105609;28;20686;-90
2021/06/11 05:30:40;;;;;;;16.50;15.00;;;15.00;99.90;;;;;;5102053;28;20625;-90
2021/06/11 05:33:07;;;;;;;15.70;14.17;;;15.10;99.90;;;;;;5105270;28;20632;-91
2021/06/11 05:35:43;;;;;;;15.03;13.73;;;15.10;99.90;;;;;;5104686;28;20627;-91
2021/06/11 05:38:10;;;;;;;14.63;13.40;;;15.10;99.90;;;;;;5105348;28;20629;-90
2021/06/11 05:40:37;;;;;;;14.90;13.57;;;15.30;99.90;;;;;;5107344;28;20640;-93
2021/06/11 05:43:04;;;;;;;15.70;14.50;;;15.30;99.90;;;;;;5111765;28;20707;-94
2021/06/11 05:45:31;;;;;;;15.27;14.13;;;15.30;99.90;;;;;;5108536;28;20640;-94
2021/06/11 05:47:57;;;;;;;14.73;13.43;;;15.40;99.90;;;;;;5107546;28;20707;-93
2021/06/11 05:50:26;;;;;;;14.30;13.10;;;15.50;99.90;;;;;;5111522;28;20611;-93
2021/06/11 05:52:55;;;;;;;13.33;12.27;;;15.70;99.90;;;;;;5112157;28;20613;-96
2021/06/11 05:55:22;;;;;;;13.13;12.13;;;15.80;99.90;;;;;;5109155;28;20616;-95
2021/06/11 05:57:52;;;;;;;14.20;13.00;;;15.80;99.90;;;;;;5273469;23;20672;-95
2021/06/11 06:21:33;;;;;;;13.37;12.03;;;16.70;99.90;;;;;;5957248;22;20687;-93
2021/06/11 06:26:45;;;;;;;12.90;12.00;;;16.70;99.90;;;;;;5092750;28;20670;-95
2021/06/11 06:29:12;;;;;;;12.50;11.50;;;16.80;99.90;;;;;;5084505;28;20621;-94
2021/06/11 06:31:42;;;;;;;12.30;11.30;;;17.00;99.90;;;;;;5090592;28;20624;-94
2021/06/11 06:34:09;;;;;;;12.90;11.90;;;17.10;99.90;;;;;;5091162;28;20632;-94
2021/06/11 06:36:42;;;;;;;12.07;11.03;;;17.30;99.90;;;;;;5090676;28;20634;-94
2021/06/11 06:39:08;;;;;;;11.77;10.80;;;17.30;99.90;;;;;;5086877;28;20632;-94
2021/06/11 06:41:35;;;;;;;11.13;10.13;;;17.40;99.90;;;;;;5095034;28;20717;-95
2021/06/11 06:44:07;;;;;;;11.40;10.40;;;17.60;99.90;;;;;;5080759;28;20671;-95
2021/06/11 06:46:34;;;;;;;11.03;10.27;;;17.70;99.90;;;;;;5079517;28;21253;-95
2021/06/11 06:49:02;;;;;;;9.87;9.07;;;17.80;99.90;;;;;;5079903;28;20664;-96
2021/06/11 06:51:29;;;;;;;10.87;9.87;;;17.80;99.90;;;;;;5079221;28;20653;-95
2021/06/11 06:53:59;;;;;;;9.77;8.87;;;17.90;99.90;;;;;;5082173;28;20644;-94
2021/06/11 06:56:26;;;;;;;14.47;9.47;;;18.10;99.90;;;;;;5077440;28;20623;-93
2021/06/11 06:58:53;;;;;;;9.73;8.87;;;18.30;99.90;;;;;;5080934;28;20659;-94
2021/06/11 07:01:20;;;;;;;11.70;10.70;;;18.30;99.90;;;;;;5073464;28;21090;-94
2021/06/11 07:03:46;;;;;;;12.13;11.03;;;18.40;99.90;;;;;;5071016;28;20637;-94
2021/06/11 07:06:14;;;;;;;10.93;10.13;;;18.60;99.90;;;;;;5069640;28;20737;-94
2021/06/11 07:08:41;;;;;;;11.37;10.37;;;18.60;99.90;;;;;;5072224;28;20737;-93
2021/06/11 07:11:10;;;;;;;11.77;10.00;;;18.50;99.90;;;;;;5074141;28;20663;-94
2021/06/11 07:13:37;;;;;;;10.60;9.90;;;18.80;99.90;;;;;;5072712;28;21172;-94
2021/06/11 07:16:04;;;;;;;12.03;11.13;;;18.90;99.90;;;;;;5070352;28;20655;-94
2021/06/11 07:18:34;;;;;;;11.47;10.60;;;19.00;99.90;;;;;;5056538;28;20630;-95
2021/06/11 07:21:02;;;;;;;12.20;11.20;;;19.00;99.90;;;;;;5069114;28;20653;-94
2021/06/11 07:23:31;;;;;;;11.83;10.80;;;19.10;99.90;;;;;;5068280;28;20628;-95
2021/06/11 07:26:02;;;;;;;11.33;10.53;;;19.10;99.90;;;;;;5071946;28;20653;-93
2021/06/11 07:28:32;;;;;;;9.77;8.97;;;19.20;99.90;;;;;;5071535;28;20724;-95
2021/06/11 07:30:59;;;;;;;12.40;11.40;;;19.10;99.90;;;;;;5073385;28;20637;-94
2021/06/11 07:33:25;;;;;;;10.50;9.70;;;19.30;99.90;;;;;;5073759;28;20625;-92
2021/06/11 07:35:55;;;;;;;11.50;10.60;;;19.30;99.90;;;;;;5072303;28;20620;-94
2021/06/11 07:38:21;;;;;;;10.20;9.33;;;19.70;99.90;;;;;;5078458;28;20732;-93
2021/06/11 07:40:51;;;;;;;11.80;10.43;;;19.90;99.90;;;;;;5072943;28;20650;-94
2021/06/11 07:43:18;;;;;;;10.57;9.47;;;20.20;99.90;;;;;;5075774;28;21187;-94
2021/06/11 07:45:45;;;;;;;10.80;9.70;;;20.30;99.90;;;;;;5075884;28;20664;-95
2021/06/11 07:48:12;;;;;;;10.13;9.33;;;20.60;99.90;;;;;;5076573;28;20637;-95
2021/06/11 07:50:41;;;;;;;10.70;9.80;;;20.40;99.90;;;;;;5067834;28;20669;-93
2021/06/11 07:53:08;;;;;;;10.03;8.77;;;20.50;99.90;;;;;;5074534;28;21216;-94
2021/06/11 07:55:35;;;;;;;9.07;8.37;;;20.60;99.90;;;;;;5073525;28;20613;-94
2021/06/11 07:58:02;;;;;;;10.70;9.33;;;20.80;99.90;;;;;;5065656;28;20605;-94
2021/06/11 08:00:29;;;;;;;9.30;8.60;;;20.80;99.90;;;;;;5075724;28;20763;-96
2021/06/11 08:03:00;;;;;;;9.43;8.70;;;20.90;99.90;;;;;;5078566;28;20983;-94
2021/06/11 08:05:30;;;;;;;11.47;10.57;;;21.20;99.90;;;;;;5054225;28;20743;-94
2021/06/11 08:08:03;;;;;;;10.23;9.43;;;21.30;99.90;;;;;;5064520;28;20982;-93
2021/06/11 08:10:32;;;;;;;9.90;9.20;;;21.40;99.90;;;;;;5064236;28;20673;-93
2021/06/11 08:12:58;;;;;;;9.03;8.33;;;21.40;99.90;;;;;;5064648;28;20752;-93
2021/06/11 08:15:34;;;;;;;9.83;8.97;;;21.60;99.90;;;;;;5069053;28;21011;-95
2021/06/11 08:18:04;;;;;;;10.80;10.00;;;21.60;99.90;;;;;;5071315;28;20706;-95
2021/06/11 08:20:31;;;;;;;10.17;9.47;;;21.80;99.90;;;;;;5067929;28;20672;-92
2021/06/11 08:23:08;;;;;;;11.20;10.10;;;22.00;99.90;;;;;;5081306;28;20638;-92
2021/06/11 08:25:35;;;;;;;10.07;9.37;;;22.00;99.90;;;;;;5077831;28;20833;-93
2021/06/11 08:28:03;;;;;;;10.13;9.33;;;22.10;99.90;;;;;;5071729;28;21132;-91
2021/06/11 08:30:32;;;;;;;9.00;8.30;;;22.10;99.90;;;;;;5069325;28;20702;-94
2021/06/11 08:33:02;;;;;;;9.60;8.70;;;22.30;99.90;;;;;;5068139;28;20629;-94
2021/06/11 08:35:32;;;;;;;9.60;8.80;;;22.50;99.90;;;;;;5070031;28;20665;-95
2021/06/11 08:38:01;;;;;;;10.43;9.63;;;22.50;99.90;;;;;;5073853;28;20644;-94
2021/06/11 08:40:30;;;;;;;9.67;9.07;;;22.60;99.90;;;;;;5067575;28;20921;-95
2021/06/11 08:42:56;;;;;;;9.23;8.43;;;22.80;99.90;;;;;;5053677;28;20654;-95
2021/06/11 08:45:26;;;;;;;10.37;9.13;;;22.90;99.90;;;;;;5064891;28;20688;-94
2021/06/11 08:47:58;;;;;;;10.10;9.30;;;23.10;99.90;;;;;;5073881;28;20647;-93
2021/06/11 08:50:34;;;;;;;10.03;9.30;;;23.30;99.90;;;;;;5083944;28;20663;-93
2021/06/11 08:53:05;;;;;;;9.90;9.20;;;23.10;99.90;;;;;;5066268;28;20628;-95
2021/06/11 08:55:33;;;;;;;9.83;9.07;;;23.30;99.90;;;;;;5081671;28;20636;-94
2021/06/11 08:58:02;;;;;;;9.30;8.50;;;23.40;99.90;;;;;;5078524;28;20633;-95
2021/06/11 09:00:30;;;;;;;10.03;9.20;;;23.50;99.90;;;;;;5064959;28;20669;-93
2021/06/11 09:03:11;;;;;;;9.83;8.93;;;23.60;99.90;;;;;;5061664;28;20650;-95
2021/06/11 09:05:40;;;;;;;9.50;8.77;;;23.80;99.90;;;;;;5059056;28;20657;-93
2021/06/11 09:08:21;;;;;;;9.83;9.13;;;23.60;99.90;;;;;;5065720;28;20615;-94
2021/06/11 09:10:48;;;;;;;10.03;9.30;;;23.90;99.90;;;;;;5064808;28;20650;-94
2021/06/11 09:13:24;;;;;;;9.17;8.47;;;23.90;99.90;;;;;;5065390;28;20613;-94
2021/06/11 09:16:12;;;;;;;10.90;9.90;;;24.30;99.90;;;;;;5048725;28;20621;-94
2021/06/11 09:18:51;;;;;;;8.87;8.27;;;24.20;99.90;;;;;;5057219;28;20660;-94
2021/06/11 09:21:33;;;;;;;9.20;8.53;;;24.40;99.90;;;;;;5078660;28;20672;-94
2021/06/11 09:24:23;;;;;;;10.67;9.30;;;24.80;99.90;;;;;;5080735;28;20632;-94
2021/06/11 09:27:16;;;;;;;9.20;8.50;;;25.00;99.90;;;;;;5080366;28;20660;-96
2021/06/11 09:29:45;;;;;;;9.77;9.07;;;25.20;99.90;;;;;;5162458;22;20641;-94
2021/06/11 09:32:41;;;;;;;10.50;9.70;;;25.00;99.90;;;;;;5060768;28;20713;-94
2021/06/11 09:35:09;;;;;;;9.30;8.60;;;25.10;99.90;;;;;;5051585;28;20630;-92
2021/06/11 09:37:38;;;;;;;10.03;9.33;;;25.20;99.90;;;;;;5031240;28;20634;-90
2021/06/11 09:40:10;;;;;;;9.50;8.80;;;25.30;99.90;;;;;;5025501;28;20649;-90
2021/06/11 09:42:44;;;;;;;10.17;9.47;;;25.20;99.90;;;;;;5045351;28;20629;-91
2021/06/11 09:45:13;;;;;;;9.77;9.07;;;25.30;99.90;;;;;;5043963;28;21270;-91
2021/06/11 09:47:42;;;;;;;10.10;9.40;;;25.50;99.90;;;;;;5043671;28;20742;-91
2021/06/11 09:50:12;;;;;;;9.50;8.83;;;25.10;99.90;;;;;;5046031;28;21348;-92
2021/06/11 09:52:52;;;;;;;9.87;9.10;;;25.50;99.90;;;;;;5041216;28;20629;-91
2021/06/11 09:55:29;;;;;;;9.17;8.37;;;25.30;99.90;;;;;;5043120;28;20610;-91
2021/06/11 09:58:07;;;;;;;10.40;9.70;;;25.40;99.90;;;;;;5051829;28;20622;-92
2021/06/11 10:00:36;;;;;;;9.00;8.23;;;25.30;99.90;;;;;;5047684;28;20645;-91
2021/06/11 10:03:09;;;;;;;10.40;9.50;;;25.60;99.90;;;;;;5044416;28;20614;-92
2021/06/11 10:05:36;;;;;;;9.83;9.23;;;25.90;99.90;;;;;;5044390;28;21627;-92
2021/06/11 10:08:03;;;;;;;10.63;9.77;;;25.90;99.60;;;;;;5051314;28;21926;-91
2021/06/11 10:10:31;;;;;;;11.17;10.27;;;25.90;99.80;;;;;;5049912;28;21301;-91
2021/06/11 10:12:58;;;;;;;9.57;8.87;;;26.00;99.20;;;;;;5051700;28;21117;-92
2021/06/11 10:15:24;;;;;;;9.10;8.40;;;26.00;99.30;;;;;;5056842;28;20625;-92
2021/06/11 10:17:50;;;;;;;10.23;9.30;;;26.10;99.20;;;;;;5054615;28;20755;-91
2021/06/11 10:20:17;;;;;;;9.80;9.03;;;25.90;99.90;;;;;;5051152;28;20672;-92
2021/06/11 10:22:44;;;;;;;10.27;9.30;;;26.10;99.70;;;;;;5053329;28;21028;-92
2021/06/11 10:25:18;;;;;;;9.90;8.90;;;26.30;99.70;;;;;;5035089;28;20677;-91
2021/06/11 10:27:46;;;;;;;9.77;8.77;;;26.70;97.60;;;;;;5055043;28;21155;-92
2021/06/11 10:30:14;;;;;;;9.03;8.47;;;26.80;96.50;;;;;;5052795;28;20672;-91
2021/06/11 10:32:45;;;;;;;8.40;7.60;;;27.10;98.00;;;;;;5048307;28;20632;-92
2021/06/11 10:35:30;;;;;;;8.67;8.13;;;27.10;98.30;;;;;;5047115;28;21082;-92
2021/06/11 10:37:57;;;;;;;8.27;7.57;;;26.50;98.30;;;;;;5045802;28;20637;-92
2021/06/11 10:40:31;;;;;;;8.10;7.60;;;26.70;99.00;;;;;;5048073;28;20660;-92
2021/06/11 10:43:31;;;;;;;8.00;7.40;;;27.10;97.80;;;;;;5048291;28;20668;-92
2021/06/11 10:45:58;;;;;;;7.73;7.27;;;27.30;96.90;;;;;;5047128;28;20658;-92
2021/06/11 10:49:00;;;;;;;9.33;8.63;;;27.80;97.10;;;;;;5046907;28;21188;-92
2021/06/11 10:51:36;;;;;;;9.50;8.90;;;27.20;94.60;;;;;;5030070;28;20657;-93
2021/06/11 10:54:26;;;;;;;8.83;8.23;;;27.40;95.40;;;;;;5046812;28;20613;-91
2021/06/11 10:57:15;;;;;;;8.77;8.07;;;27.80;94.40;;;;;;5046848;28;20633;-94
2021/06/11 10:59:45;;;;;;;7.83;7.33;;;28.40;92.10;;;;;;5046175;28;20837;-94
2021/06/11 11:02:12;;;;;;;8.60;8.10;;;28.30;91.20;;;;;;5044143;28;20613;-96
2021/06/11 11:04:44;;;;;;;8.80;8.10;;;28.70;89.40;;;;;;5049677;28;20641;-92
2021/06/11 11:07:29;;;;;;;8.77;7.93;;;28.80;90.10;;;;;;5047911;28;21016;-93
2021/06/11 11:09:57;;;;;;;8.53;7.87;;;28.80;86.20;;;;;;5045548;28;21211;-92
2021/06/11 11:12:30;;;;;;;8.00;7.50;;;28.40;87.20;;;;;;5041346;28;20623;-91
2021/06/11 11:15:04;;;;;;;8.83;8.00;;;28.50;85.70;;;;;;5043143;28;20626;-93
2021/06/11 11:17:51;;;;;;;8.33;7.73;;;28.70;83.50;;;;;;5044925;28;20617;-93
2021/06/11 11:20:33;;;;;;;7.93;7.23;;;28.90;83.60;;;;;;5044428;28;20718;-92
2021/06/11 11:23:07;;;;;;;8.37;7.57;;;28.70;81.90;;;;;;5044704;28;21239;-92
2021/06/11 11:25:35;;;;;;;6.70;6.30;;;29.20;82.20;;;;;;5045959;28;20671;-91
2021/06/11 11:28:02;;;;;;;6.00;5.70;;;29.50;80.90;;;;;;5040985;28;20711;-90
2021/06/11 11:30:31;;;;;;;6.50;6.10;;;29.50;82.60;;;;;;5041527;28;20661;-90
2021/06/11 11:32:59;;;;;;;7.57;6.97;;;29.20;75.80;;;;;;5045620;28;20626;-93
2021/06/11 11:35:28;;;;;;;6.93;6.43;;;29.20;73.90;;;;;;5044777;28;20598;-91
2021/06/11 11:37:55;;;;;;;7.33;6.80;;;29.30;72.30;;;;;;5041929;28;20677;-91
2021/06/11 11:40:23;;;;;;;7.37;6.80;;;28.80;73.70;;;;;;5028505;28;20658;-92
2021/06/11 11:42:50;;;;;;;8.00;7.30;;;28.70;74.10;;;;;;5044620;28;20632;-92
2021/06/11 11:45:17;;;;;;;6.17;5.63;;;28.80;71.70;;;;;;5045033;28;20653;-92
2021/06/11 11:47:45;;;;;;;6.60;6.20;;;28.70;75.40;;;;;;5042858;28;20646;-92
2021/06/11 11:50:12;;;;;;;6.73;6.33;;;28.70;76.70;;;;;;5038462;28;20700;-93
2021/06/11 11:52:39;;;;;;;7.07;6.67;;;29.50;74.60;;;;;;5046504;28;20641;-93
2021/06/11 11:55:07;;;;;;;6.10;5.70;;;29.90;72.90;;;;;;5049755;28;20762;-93
2021/06/11 11:57:34;;;;;;;6.80;6.27;;;30.20;76.30;;;;;;5025596;28;20622;-92
2021/06/11 12:00:00;;;;;;;5.00;4.60;;;29.80;71.60;;;;;;5040178;28;20645;-92
2021/06/11 12:02:27;;;;;;;6.13;5.67;;;30.40;68.70;;;;;;5045321;28;20629;-91
2021/06/11 12:04:55;;;;;;;6.17;5.77;;;30.20;68.20;;;;;;5043266;28;20661;-90
2021/06/11 12:07:22;;;;;;;7.03;6.43;;;29.70;70.50;;;;;;5045990;28;20627;-92
2021/06/11 12:09:53;;;;;;;7.00;6.60;;;29.00;73.40;;;;;;5045961;28;20653;-92
2021/06/11 12:12:19;;;;;;;7.93;7.43;;;28.60;77.20;;;;;;5044029;28;20631;-93
2021/06/11 12:14:46;;;;;;;8.33;7.83;;;28.20;80.50;;;;;;5059858;28;20627;-93
2021/06/11 12:17:12;;;;;;;8.00;7.50;;;28.90;76.80;;;;;;5066033;28;20741;-94
2021/06/11 12:19:39;;;;;;;7.67;7.07;;;29.70;73.20;;;;;;5068129;28;20628;-94
2021/06/11 12:22:06;;;;;;;7.60;7.00;;;30.70;72.20;;;;;;5046531;28;21201;-94
2021/06/11 12:24:37;;;;;;;7.50;7.00;;;31.20;71.30;;;;;;5050560;28;20642;-95
2021/06/11 12:27:10;;;;;;;6.87;6.37;;;31.80;69.70;;;;;;5049095;28;20993;-96
2021/06/11 12:32:22;;;;;;;6.50;6.10;;;32.00;70.00;;;;;;5183000;22;20648;-94
2021/06/11 12:34:50;;;;;;;6.30;5.90;;;32.60;66.10;;;;;;5036671;28;20711;-96
2021/06/11 12:37:20;;;;;;;6.10;5.63;;;31.90;63.00;;;;;;5023904;28;20223;-96
2021/06/11 12:39:53;;;;;;;6.47;5.97;;;32.20;64.00;;;;;;5033886;28;20621;-95
2021/06/11 12:42:25;;;;;;;6.60;6.10;;;31.70;59.70;;;;;;5033320;28;20679;-94
2021/06/11 12:44:52;;;;;;;6.50;6.10;;;30.80;61.90;;;;;;5027394;28;20630;-95
2021/06/11 12:47:41;;;;;;;6.20;5.80;;;30.80;60.90;;;;;;5036558;28;20622;-96
2021/06/11 12:50:11;;;;;;;6.63;6.20;;;31.30;64.00;;;;;;5018883;28;20626;-96
2021/06/11 12:52:49;;;;;;;7.13;6.63;;;31.50;59.70;;;;;;5040241;28;20665;-96
2021/06/11 12:55:26;;;;;;;5.80;5.40;;;31.80;58.10;;;;;;5036567;28;21215;-96
2021/06/11 12:58:05;;;;;;;5.93;5.50;;;32.10;55.90;;;;;;5031047;28;21357;-96
2021/06/11 13:00:41;;;;;;;5.83;5.47;;;32.90;54.10;;;;;;5053253;28;20611;-96
2021/06/11 13:03:15;;;;;;;5.50;5.20;;;33.40;52.10;;;;;;5029036;28;20653;-96
2021/06/11 13:05:42;;;;;;;6.30;5.70;;;32.30;52.70;;;;;;5026393;28;20606;-94
2021/06/11 13:08:21;;;;;;;5.63;5.00;;;31.00;54.00;;;;;;5025545;28;20626;-96
2021/06/11 13:11:01;;;;;;;5.40;5.10;;;31.50;55.50;;;;;;5040018;28;20625;-96
2021/06/11 13:13:46;;;;;;;4.93;4.50;;;32.40;50.70;;;;;;5046175;28;20654;-96
2021/06/11 13:16:18;;;;;;;5.40;4.90;;;33.10;49.20;;;;;;5054110;28;20251;-96